^^
Grace C. Lehan Memorial Weather Station Historical Data
Daily Summary for July 16, 2021 Units:  English    Metric   Both
Daily Weekly Monthly Yearly
  High: Low: Average:
Temperature: 62.3 °F 45.7 °F 55.7 °F
Dew Point: 52 °F 44.4 °F 47.7 °F
Humidity: 96% 54% 76%
Wind Speed: 3.8mph 0mph 1.1mph
Wind Gust: 16mph - -
Wind- - SSW
Pressure: 30.21 in 29.80 in -
Precipitation: 0.00 in    
 
 
Tabular Data for July 16, 2021
Time Temperature Dew Point Pressure Wind Wind Speed Wind Gust Humidity Rainfall Rate (Hourly) solar
00:04 45.7 °F 44.4 °F 30.20 in Calm   3 mph 95% 0.01 in 0 W/m2
00:09 46 °F 44.6 °F 30.21 in South 0.1 mph 3 mph 95% 0.00 in 0 W/m2
00:14 46.3 °F 44.9 °F 30.20 in Calm   3 mph 95% 0.00 in 0 W/m2
00:19 46.7 °F 45.5 °F 30.20 in South 0.2 mph 3 mph 95.6% 0.00 in 0 W/m2
00:24 47.1 °F 45.8 °F 30.20 in Calm   3 mph 95.1% 0.00 in 0 W/m2
00:29 47.4 °F 46.3 °F 30.20 in Calm   3 mph 96% 0.00 in 0 W/m2
00:34 47.7 °F 46.6 °F 30.19 in South 0.1 mph 3 mph 96% 0.00 in 0 W/m2
00:39 48 °F 46.9 °F 30.18 in South 0.6 mph 3 mph 96% 0.00 in 0 W/m2
00:44 48.5 °F 47.4 °F 30.17 in South 0.9 mph 5 mph 96% 0.00 in 0 W/m2
00:49 48.9 °F 47.8 °F 30.17 in South 0.3 mph 5 mph 96% 0.00 in 0 W/m2
00:54 49.2 °F 48.2 °F 30.17 in Calm   5 mph 96% 0.00 in 0 W/m2
00:59 49.5 °F 48.4 °F 30.16 in SSW 2 mph 7 mph 96% 0.00 in 0 W/m2
01:04 49.8 °F 48.7 °F 30.16 in SW 1.5 mph 7 mph 96% 0.00 in 0 W/m2
01:09 50 °F 48.9 °F 30.16 in WSW 2.1 mph 7 mph 96% 0.00 in 0 W/m2
01:14 50.1 °F 49.1 °F 30.16 in WSW 1.9 mph 7 mph 96% 0.00 in 0 W/m2
01:19 50.3 °F 49.2 °F 30.16 in SW 1.5 mph 7 mph 96% 0.00 in 0 W/m2
01:20 50.4 °F 49.3 °F 30.16 in Calm   7 mph 96% 0.00 in 0 W/m2
01:30 50.8 °F 49.7 °F 30.16 in SW 2 mph 7 mph 96% 0.00 in 0 W/m2
03:00 52.6 °F 51.5 °F 30.13 in SSW 1 mph 5 mph 96% 0.00 in 0 W/m2
03:30 52.8 °F 51.7 °F 30.12 in SW 2 mph 7 mph 96% 0.00 in 0 W/m2
04:04 53.1 °F 52 °F 30.12 in SW 2.7 mph 7 mph 96% 0.00 in 0 W/m2
04:09 53.1 °F 51.8 °F 30.11 in SW 2.4 mph 7 mph 95.5% 0.00 in 0 W/m2
04:14 53.1 °F 51.7 °F 30.11 in SW 2.2 mph 7 mph 95% 0.00 in 0 W/m2
04:19 53.1 °F 51.7 °F 30.10 in SW 2.1 mph 8 mph 95% 0.00 in 0 W/m2
04:24 53.2 °F 51.8 °F 30.10 in SW 2.5 mph 9 mph 95% 0.00 in 0 W/m2
04:29 53.2 °F 51.8 °F 30.10 in SW 0.8 mph 9 mph 95% 0.00 in 0 W/m2
04:34 53.2 °F 51.8 °F 30.10 in SW 1.3 mph 9 mph 95% 0.00 in 0 W/m2
04:39 53.2 °F 51.8 °F 30.11 in SW 1 mph 7 mph 95% 0.00 in 0 W/m2
04:44 53.2 °F 51.8 °F 30.10 in SW 1 mph 7 mph 95% 0.00 in 0 W/m2
04:49 53.2 °F 51.8 °F 30.10 in SW 2.8 mph 7 mph 94.8% 0.00 in 0 W/m2
04:54 53.2 °F 51.6 °F 30.10 in SW 1.9 mph 7 mph 94% 0.00 in 0 W/m2
04:59 53.3 °F 51.6 °F 30.10 in SW 2 mph 7 mph 94% 0.00 in 0 W/m2
05:04 53.4 °F 51.7 °F 30.10 in WSW 2 mph 7 mph 94% 0.00 in 0 W/m2
05:09 53.5 °F 51.8 °F 30.10 in WSW 2.2 mph 7 mph 93.8% 0.00 in 0 W/m2
05:14 53.5 °F 51.5 °F 30.10 in SW 1.8 mph 7 mph 93% 0.00 in 0 W/m2
05:19 53.6 °F 51.6 °F 30.10 in SW 2.5 mph 7 mph 93% 0.00 in 0 W/m2
05:24 53.6 °F 51.6 °F 30.09 in SW 2.3 mph 7 mph 93% 0.00 in 0 W/m2
05:29 53.6 °F 51.3 °F 30.09 in SW 2.6 mph 7 mph 92% 0.00 in 0 W/m2
05:34 53.7 °F 51.4 °F 30.09 in SW 2.8 mph 7 mph 92% 0.00 in 0 W/m2
05:39 53.7 °F 51.4 °F 30.09 in SW 3.1 mph 7 mph 92% 0.00 in 0 W/m2
05:44 53.7 °F 51.4 °F 30.09 in SW 2.6 mph 13 mph 91.8% 0.00 in 0 W/m2
05:49 53.7 °F 51.2 °F 30.09 in SW 2.2 mph 13 mph 91% 0.00 in 0 W/m2
05:54 53.8 °F 51.2 °F 30.09 in SW 1.5 mph 13 mph 91% 0.00 in 0 W/m2
05:59 53.7 °F 51.2 °F 30.10 in SW 1.8 mph 13 mph 91% 0.00 in 0 W/m2
06:04 53.7 °F 51.1 °F 30.09 in SW 1.4 mph 13 mph 91% 0.00 in 0 W/m2
06:09 53.6 °F 51 °F 30.09 in SW 0.7 mph 6 mph 91% 0.00 in 0 W/m2
06:14 53.5 °F 51 °F 30.09 in SW 0.5 mph 6 mph 91% 0.00 in 0 W/m2
06:19 53.4 °F 50.9 °F 30.08 in SW 0.2 mph 6 mph 91% 0.00 in 0 W/m2
06:24 53.3 °F 50.7 °F 30.08 in SW 0.8 mph 6 mph 91% 0.00 in 0 W/m2
06:29 53.2 °F 50.6 °F 30.09 in SW 0.3 mph 6 mph 91% 0.00 in 0 W/m2
06:34 53.1 °F 50.5 °F 30.09 in SW 0.2 mph 6 mph 91% 0.00 in 0 W/m2
06:39 52.9 °F 50.4 °F 30.08 in SW 0.1 mph 3 mph 91.1% 0.00 in 0 W/m2
06:44 52.8 °F 50.5 °F 30.09 in SW 0.3 mph 3 mph 92% 0.00 in 0 W/m2
06:49 52.7 °F 50.4 °F 30.08 in SW 0.1 mph 3 mph 92% 0.00 in 0 W/m2
06:54 52.6 °F 50.3 °F 30.08 in SW 0.2 mph 3 mph 92% 0.00 in 0 W/m2
06:59 52.4 °F 50.2 °F 30.08 in SW 0.2 mph 3 mph 92% 0.00 in 0 W/m2
07:04 52.4 °F 50.2 °F 30.07 in SW 0.1 mph 3 mph 92% 0.00 in 0 W/m2
07:09 52.4 °F 50.2 °F 30.07 in SW 0.3 mph 3 mph 92.1% 0.00 in 0 W/m2
07:14 52.4 °F 50.5 °F 30.06 in SW 0.7 mph 4 mph 93% 0.00 in 0 W/m2
07:19 52.5 °F 50.5 °F 30.06 in SW 0.9 mph 7 mph 93% 0.00 in 0 W/m2
07:24 52.5 °F 50.5 °F 30.06 in SW 0.7 mph 7 mph 93% 0.00 in 0 W/m2
07:29 52.5 °F 50.6 °F 30.07 in SW 1.7 mph 7 mph 93% 0.00 in 5 W/m2
07:34 52.6 °F 50.6 °F 30.07 in SW 1.1 mph 7 mph 93% 0.00 in 7 W/m2
07:39 52.6 °F 50.6 °F 30.06 in SW 0.4 mph 7 mph 92.5% 0.00 in 11 W/m2
07:44 52.7 °F 50.5 °F 30.06 in SW 0.6 mph 7 mph 92% 0.00 in 12 W/m2
07:49 52.8 °F 50.5 °F 30.06 in SW 0.8 mph 7 mph 92% 0.00 in 12 W/m2
07:54 52.8 °F 50.6 °F 30.06 in SW 0.1 mph 7 mph 92% 0.00 in 16 W/m2
07:59 52.9 °F 50.6 °F 30.05 in SW 0.2 mph 7 mph 92% 0.00 in 16 W/m2
08:04 53 °F 50.7 °F 30.05 in Calm     92% 0.00 in 25 W/m2
08:09 53 °F 50.8 °F 30.05 in SW 0.1 mph 4 mph 92% 0.00 in 33 W/m2
08:14 53.1 °F 50.8 °F 30.05 in SW 0.1 mph 4 mph 92% 0.00 in 37 W/m2
08:19 53.1 °F 50.8 °F 30.05 in SW 0.3 mph 4 mph 92% 0.00 in 46 W/m2
08:24 53.1 °F 50.8 °F 30.05 in Calm   4 mph 92% 0.00 in 47 W/m2
08:29 53.2 °F 50.9 °F 30.05 in Calm   4 mph 92% 0.00 in 47 W/m2
08:34 53.2 °F 50.9 °F 30.05 in Calm   4 mph 92% 0.00 in 51 W/m2
08:39 53.2 °F 50.9 °F 30.05 in Calm   1 mph 92% 0.00 in 63 W/m2
08:44 53.2 °F 51 °F 30.05 in SW 0.2 mph 2 mph 92% 0.00 in 63 W/m2
08:49 53.3 °F 51 °F 30.05 in Calm   2 mph 92% 0.00 in 62 W/m2
08:54 53.3 °F 51 °F 30.06 in Calm   2 mph 92% 0.00 in 67 W/m2
08:59 53.3 °F 51 °F 30.05 in Calm   2 mph 92% 0.00 in 88 W/m2
09:04 53.3 °F 51.1 °F 30.05 in SW 0.2 mph 2 mph 92% 0.00 in 107 W/m2
09:09 53.4 °F 51.2 °F 30.05 in Calm   2 mph 92% 0.00 in 134 W/m2
09:14 53.6 °F 51.3 °F 30.05 in SW 0.4 mph 3 mph 92% 0.00 in 192 W/m2
09:19 53.8 °F 51.6 °F 30.05 in SW 0.3 mph 3 mph 92% 0.00 in 149 W/m2
09:24 54.1 °F 51.5 °F 30.04 in SW 0.4 mph 3 mph 91% 0.00 in 162 W/m2
09:29 54.3 °F 51.7 °F 30.04 in Calm   3 mph 90.9% 0.00 in 149 W/m2
09:34 54.5 °F 51.6 °F 30.04 in SW 0.2 mph 3 mph 90% 0.00 in 120 W/m2
09:39 54.6 °F 51.6 °F 30.04 in SW 0.8 mph 5 mph 89.5% 0.00 in 109 W/m2
09:44 54.7 °F 51.5 °F 30.04 in SW 0.4 mph 5 mph 89% 0.00 in 114 W/m2
09:49 54.8 °F 51.3 °F 30.03 in SW 0.6 mph 5 mph 88% 0.00 in 128 W/m2
09:54 54.9 °F 51.3 °F 30.03 in SW 0.5 mph 5 mph 87.7% 0.00 in 134 W/m2
09:59 55 °F 51.2 °F 30.03 in SW 0.2 mph 5 mph 87% 0.00 in 135 W/m2
10:04 55.2 °F 51.3 °F 30.03 in SW 0.4 mph 5 mph 86.5% 0.00 in 127 W/m2
10:09 55.3 °F 51.1 °F 30.03 in SW 0.2 mph 5 mph 85.7% 0.00 in 111 W/m2
10:14 55.4 °F 50.9 °F 30.03 in SW 0.8 mph 5 mph 84.6% 0.00 in 118 W/m2
10:19 55.5 °F 50.6 °F 30.03 in SW 0.4 mph 5 mph 83.6% 0.00 in 120 W/m2
10:24 55.7 °F 50.4 °F 30.02 in SW 1.6 mph 6 mph 82.3% 0.00 in 123 W/m2
10:29 55.8 °F 50.1 °F 30.02 in SW 0.8 mph 6 mph 81% 0.00 in 137 W/m2
10:34 56 °F 49.9 °F 30.01 in SW 0.2 mph 6 mph 80% 0.00 in 148 W/m2
10:39 56.2 °F 49.7 °F 30.01 in SW 2 mph 7 mph 78.9% 0.00 in 171 W/m2
10:44 56.5 °F 49.7 °F 30.02 in SW 1.3 mph 7 mph 77.9% 0.00 in 167 W/m2
10:49 56.7 °F 49.6 °F 30.02 in SW 1 mph 7 mph 77% 0.00 in 178 W/m2
10:54 57 °F 49.7 °F 30.01 in SW 1.9 mph 7 mph 76.5% 0.00 in 171 W/m2
10:59 57.3 °F 49.5 °F 30.01 in SW 1.4 mph 7 mph 75.3% 0.00 in 132 W/m2
11:04 57.4 °F 49.4 °F 30.00 in SW 3.8 mph 10 mph 74.5% 0.00 in 190 W/m2
11:09 57.6 °F 49 °F 30.00 in SW 1.2 mph 10 mph 73% 0.00 in 165 W/m2
11:14 57.8 °F 49.3 °F 30.00 in SW 2 mph 10 mph 73.1% 0.00 in 167 W/m2
11:19 58.1 °F 49.6 °F 30.00 in SW 1 mph 10 mph 73.3% 0.00 in 165 W/m2
11:24 58.3 °F 49.3 °F 29.99 in SW 2 mph 10 mph 71.8% 0.00 in 163 W/m2
11:29 58.6 °F 49.2 °F 29.98 in SW 1.6 mph 10 mph 71% 0.00 in 162 W/m2
11:34 58.8 °F 49.3 °F 29.98 in SW 2.3 mph 10 mph 70.7% 0.00 in 195 W/m2
11:39 59 °F 49 °F 29.98 in SW 2.8 mph 9 mph 69.3% 0.00 in 174 W/m2
11:44 59.2 °F 49 °F 29.97 in SW 1.4 mph 9 mph 68.9% 0.00 in 162 W/m2
11:49 59.3 °F 49.2 °F 29.97 in SW 1.7 mph 9 mph 69% 0.00 in 149 W/m2
11:54 59.5 °F 48.7 °F 29.97 in SW 1.2 mph 9 mph 67.4% 0.00 in 146 W/m2
11:59 59.6 °F 48.7 °F 29.96 in SW 1.6 mph 9 mph 67.2% 0.00 in 179 W/m2
12:00 59.7 °F 48.7 °F 29.96 in SW 1 mph 9 mph 67% 0.00 in 153 W/m2
12:09 59.9 °F 48.2 °F 29.95 in SW 1.8 mph 5 mph 65% 0.00 in 225 W/m2
12:14 60.1 °F 47.9 °F 29.95 in SW 2.1 mph 9 mph 64% 0.00 in 239 W/m2
12:19 60.4 °F 47.9 °F 29.94 in SW 2.8 mph 10 mph 63.4% 0.00 in 239 W/m2
12:24 60.7 °F 47.7 °F 29.94 in SW 3.6 mph 16 mph 62.3% 0.00 in 144 W/m2
12:29 60.9 °F 47.3 °F 29.93 in SW 2.8 mph 16 mph 60.9% 0.00 in 160 W/m2
12:34 60.9 °F 47 °F 29.93 in SW 2.2 mph 16 mph 60% 0.00 in 214 W/m2
12:39 61.1 °F 46.8 °F 29.93 in SW 3.5 mph 12 mph 59.3% 0.00 in 283 W/m2
12:44 61.4 °F 47 °F 29.92 in SW 1 mph 12 mph 59.2% 0.00 in 288 W/m2
12:49 61.7 °F 47.1 °F 29.92 in SW 1.6 mph 12 mph 58.5% 0.00 in 200 W/m2
12:54 62 °F 46.8 °F 29.92 in SW 2 mph 12 mph 57.5% 0.00 in 163 W/m2
12:59 62.1 °F 47.7 °F 29.92 in South 1 mph 12 mph 59.3% 0.00 in 135 W/m2
13:04 62 °F 48 °F 29.92 in SSW 1.6 mph 12 mph 59.9% 0.00 in 274 W/m2
13:09 62 °F 48.1 °F 29.91 in South 1.7 mph 4 mph 60.2% 0.00 in 320 W/m2
13:14 62.2 °F 48.1 °F 29.91 in South 1.5 mph 5 mph 60% 0.00 in 278 W/m2
13:19 62.2 °F 48 °F 29.91 in South 1 mph 5 mph 59.5% 0.00 in 278 W/m2
13:24 62.3 °F 47.9 °F 29.91 in South 1 mph 5 mph 59.2% 0.00 in 243 W/m2
13:29 62.2 °F 47.4 °F 29.90 in South 1.8 mph 9 mph 58.3% 0.00 in 265 W/m2
13:34 62.2 °F 47.2 °F 29.90 in South 1.8 mph 9 mph 57.9% 0.00 in 260 W/m2
13:39 62.3 °F 47.2 °F 29.90 in SSW 1.2 mph 8 mph 57.7% 0.00 in 260 W/m2
13:44 62.2 °F 46.4 °F 29.90 in South 2.8 mph 8 mph 56.2% 0.00 in 118 W/m2
13:49 61.9 °F 46.3 °F 29.89 in SSW 1.6 mph 8 mph 56.5% 0.00 in 148 W/m2
13:54 61.7 °F 46 °F 29.88 in South 2.1 mph 8 mph 56.2% 0.00 in 160 W/m2
13:59 61.7 °F 45.5 °F 29.88 in South 2 mph 9 mph 55.3% 0.00 in 195 W/m2
14:04 61.7 °F 45.5 °F 29.88 in South 2.3 mph 9 mph 55.2% 0.00 in 213 W/m2
14:09 61.8 °F 45.5 °F 29.88 in South 2 mph 6 mph 54.9% 0.00 in 158 W/m2
14:14 62 °F 45.4 °F 29.88 in SSW 1.6 mph 8 mph 54.4% 0.00 in 109 W/m2
14:19 62 °F 45.4 °F 29.88 in SSW 1.4 mph 8 mph 54.4% 0.00 in 102 W/m2
14:24 62 °F 45.2 °F 29.88 in SSW 0.6 mph 8 mph 54.2% 0.00 in 132 W/m2
14:29 62 °F 45.3 °F 29.88 in SSW 0.3 mph 8 mph 54.2% 0.00 in 123 W/m2
14:34 62 °F 45.2 °F 29.88 in SSW 1.3 mph 8 mph 54% 0.00 in 77 W/m2
14:39 62 °F 45.2 °F 29.88 in SSW 0.6 mph 4 mph 54% 0.00 in 69 W/m2
14:44 61.9 °F 45.1 °F 29.88 in SSW 0.8 mph 4 mph 54% 0.00 in 60 W/m2
14:49 61.8 °F 45.3 °F 29.88 in SSW 1.1 mph 7 mph 54.7% 0.00 in 56 W/m2
14:54 61.6 °F 45.6 °F 29.88 in SSW 0.9 mph 7 mph 55.7% 0.00 in 56 W/m2
14:59 61.3 °F 45.9 °F 29.88 in SSW 0.5 mph 7 mph 56.9% 0.00 in 54 W/m2
15:04 61 °F 45.8 °F 29.88 in SSW 1.4 mph 7 mph 57.2% 0.00 in 53 W/m2
15:09 60.8 °F 45.9 °F 29.88 in SSW 1.2 mph 6 mph 58% 0.00 in 53 W/m2
15:14 60.7 °F 45.8 °F 29.88 in SSW 1.9 mph 11 mph 58% 0.00 in 51 W/m2
15:19 60.5 °F 45.7 °F 29.88 in SW 1.3 mph 11 mph 58% 0.00 in 44 W/m2
15:24 60.4 °F 45.7 °F 29.88 in SW 1.1 mph 11 mph 58.1% 0.00 in 39 W/m2
15:29 60.4 °F 45.7 °F 29.87 in SSW 1 mph 11 mph 58.3% 0.00 in 33 W/m2
15:34 60.2 °F 45.6 °F 29.87 in SSW 0.8 mph 11 mph 58.4% 0.00 in 32 W/m2
15:39 60.1 °F 45.7 °F 29.87 in SSW 0.5 mph 3 mph 59% 0.00 in 30 W/m2
15:44 59.9 °F 45.6 °F 29.87 in SSW 0.9 mph 6 mph 59% 0.00 in 26 W/m2
15:49 59.7 °F 45.5 °F 29.87 in SW 1 mph 7 mph 59.3% 0.00 in 23 W/m2
15:54 59.6 °F 45.7 °F 29.87 in SW 0.8 mph 7 mph 60% 0.00 in 19 W/m2
15:59 59.3 °F 45.5 °F 29.87 in SW 0.9 mph 7 mph 60.2% 0.00 in 14 W/m2
16:00 59.2 °F 45.8 °F 29.87 in SW 1 mph 7 mph 61% 0.00 in 11 W/m2
16:09 58.9 °F 45.5 °F 29.87 in SW 1.5 mph 5 mph 61% 0.00 in 7 W/m2
16:14 58.8 °F 45.4 °F 29.87 in SSW 0.9 mph 5 mph 61% 0.00 in 5 W/m2
16:19 58.7 °F 45.3 °F 29.86 in SSW 0.9 mph 5 mph 61% 0.00 in 0 W/m2
16:24 58.6 °F 45.2 °F 29.86 in SSW 1.5 mph 5 mph 61% 0.00 in 0 W/m2
16:29 58.4 °F 45.1 °F 29.86 in SSW 0.9 mph 5 mph 61% 0.00 in 0 W/m2
16:34 58.3 °F 45.1 °F 29.86 in SSW 0.9 mph 5 mph 61.2% 0.00 in 0 W/m2
16:39 58.2 °F 45.2 °F 29.86 in SSW 1.3 mph 4 mph 62% 0.00 in 0 W/m2
16:44 58 °F 45 °F 29.86 in SSW 0.9 mph 4 mph 61.8% 0.00 in 0 W/m2
16:49 57.9 °F 45 °F 29.86 in SW 1.3 mph 6 mph 62% 0.00 in 0 W/m2
16:54 57.7 °F 45.1 °F 29.87 in SW 1.5 mph 6 mph 62.8% 0.00 in 0 W/m2
16:59 57.5 °F 45 °F 29.87 in SW 0.7 mph 6 mph 63% 0.00 in 0 W/m2
17:04 57.3 °F 44.9 °F 29.86 in SW 0.8 mph 6 mph 63% 0.00 in 0 W/m2
17:09 57.2 °F 45 °F 29.87 in SW 1.2 mph 5 mph 63.7% 0.00 in 0 W/m2
17:14 57.1 °F 45 °F 29.87 in SW 0.6 mph 5 mph 64% 0.00 in 0 W/m2
17:19 56.9 °F 44.9 °F 29.87 in SW 1 mph 5 mph 64% 0.00 in 0 W/m2
17:24 56.8 °F 44.9 °F 29.87 in SW 0.7 mph 5 mph 64.3% 0.00 in 0 W/m2
17:29 56.7 °F 45.1 °F 29.87 in SW 0.9 mph 5 mph 65% 0.00 in 0 W/m2
17:34 56.7 °F 45 °F 29.87 in SW 0.8 mph 5 mph 65% 0.00 in 0 W/m2
17:39 56.6 °F 45.1 °F 29.87 in SW 0.1 mph 4 mph 65.3% 0.00 in 0 W/m2
17:44 56.5 °F 45.3 °F 29.87 in Calm   4 mph 65.9% 0.00 in 0 W/m2
17:49 56.4 °F 45.2 °F 29.87 in Calm   4 mph 66% 0.00 in 0 W/m2
17:54 56.2 °F 45 °F 29.87 in SW 0.4 mph 4 mph 66% 0.00 in 0 W/m2
17:59 56.1 °F 45.1 °F 29.87 in SW 0.3 mph 4 mph 66.4% 0.00 in 0 W/m2
18:04 55.9 °F 45.2 °F 29.87 in SW 0.7 mph 5 mph 67% 0.00 in 0 W/m2
18:09 55.8 °F 45 °F 29.87 in SW 0.6 mph 5 mph 67% 0.00 in 0 W/m2
18:14 55.7 °F 44.9 °F 29.87 in SW 0.8 mph 5 mph 67% 0.00 in 0 W/m2
18:19 55.5 °F 45 °F 29.87 in SW 1 mph 5 mph 67.5% 0.00 in 0 W/m2
18:24 55.4 °F 45.1 °F 29.86 in SW 2.6 mph 6 mph 68% 0.00 in 0 W/m2
18:29 55.4 °F 45 °F 29.86 in SW 1.6 mph 6 mph 68% 0.00 in 0 W/m2
18:34 55.3 °F 44.9 °F 29.86 in SW 2.1 mph 7 mph 68% 0.00 in 0 W/m2
18:39 55.2 °F 44.8 °F 29.86 in SW 1.1 mph 7 mph 68% 0.00 in 0 W/m2
18:44 55.1 °F 44.8 °F 29.86 in SW 1.2 mph 7 mph 68% 0.00 in 0 W/m2
18:49 55.1 °F 44.7 °F 29.86 in SW 1.1 mph 7 mph 68% 0.00 in 0 W/m2
18:54 55.1 °F 44.7 °F 29.86 in SW 2 mph 7 mph 68% 0.00 in 0 W/m2
18:59 55.1 °F 44.7 °F 29.85 in SW 2.4 mph 7 mph 68% 0.00 in 0 W/m2
19:04 55.1 °F 44.7 °F 29.85 in SW 2.3 mph 7 mph 68% 0.00 in 0 W/m2
19:09 55.1 °F 44.7 °F 29.85 in SW 2.8 mph 6 mph 68% 0.00 in 0 W/m2
19:14 55.2 °F 44.8 °F 29.86 in SW 2.6 mph 7 mph 68% 0.00 in 0 W/m2
19:19 55.3 °F 44.9 °F 29.86 in SW 2.1 mph 7 mph 68% 0.00 in 0 W/m2
19:24 55.3 °F 44.9 °F 29.85 in SW 1.7 mph 7 mph 68% 0.00 in 0 W/m2
19:29 55.3 °F 44.9 °F 29.85 in SW 0.5 mph 7 mph 68% 0.00 in 0 W/m2
19:34 55.4 °F 45 °F 29.85 in SW 0.4 mph 7 mph 68% 0.00 in 0 W/m2
19:39 55.4 °F 45 °F 29.85 in SW 0.1 mph 4 mph 68% 0.00 in 0 W/m2
19:44 55.3 °F 44.9 °F 29.84 in SW 0.8 mph 4 mph 68% 0.00 in 0 W/m2
19:49 55.4 °F 45 °F 29.84 in SSW 1.8 mph 6 mph 68% 0.00 in 0 W/m2
19:54 55.5 °F 45.2 °F 29.84 in SSW 1.2 mph 6 mph 68.3% 0.00 in 0 W/m2
19:59 55.6 °F 45.6 °F 29.84 in SSW 0.7 mph 6 mph 69% 0.00 in 0 W/m2
20:09 55.4 °F 45.5 °F 29.84 in SSW 0.3 mph 3 mph 69% 0.00 in 0 W/m2
20:14 55.4 °F 45.4 °F 29.84 in SSW 0.3 mph 3 mph 69% 0.00 in 0 W/m2
20:19 55.3 °F 45.3 °F 29.85 in SSW 1 mph 4 mph 69% 0.00 in 0 W/m2
20:24 55.3 °F 45.3 °F 29.85 in SSW 0.1 mph 4 mph 69% 0.00 in 0 W/m2
20:29 55.3 °F 45.3 °F 29.85 in SSW 1.2 mph 4 mph 68.9% 0.00 in 0 W/m2
20:34 55.3 °F 44.9 °F 29.84 in SSW 1.4 mph 4 mph 68% 0.00 in 0 W/m2
20:39 55.4 °F 45 °F 29.84 in SSW 1.4 mph 4 mph 68% 0.00 in 0 W/m2
20:44 55.5 °F 44.8 °F 29.84 in SSW 1.4 mph 5 mph 67.2% 0.00 in 0 W/m2
20:49 55.6 °F 44.8 °F 29.84 in SSW 0.9 mph 5 mph 67% 0.00 in 0 W/m2
20:54 55.7 °F 44.7 °F 29.84 in South 1.4 mph 6 mph 66.6% 0.00 in 0 W/m2
20:59 55.8 °F 44.6 °F 29.83 in South 0.9 mph 6 mph 66% 0.00 in 0 W/m2
21:04 55.9 °F 44.7 °F 29.83 in South 1.4 mph 6 mph 66% 0.00 in 0 W/m2
21:09 55.9 °F 44.8 °F 29.83 in South 1.6 mph 5 mph 66.2% 0.00 in 0 W/m2
21:14 56 °F 45 °F 29.83 in South 0.2 mph 5 mph 66.4% 0.00 in 0 W/m2
21:19 56 °F 45.2 °F 29.83 in South 0.9 mph 5 mph 67% 0.00 in 0 W/m2
21:24 56.1 °F 45.1 °F 29.83 in South 1 mph 6 mph 66.7% 0.00 in 0 W/m2
21:29 56.2 °F 45.2 °F 29.83 in South 0.9 mph 6 mph 66.5% 0.00 in 0 W/m2
21:34 56.2 °F 45.4 °F 29.83 in South 1.3 mph 6 mph 67% 0.00 in 0 W/m2
21:39 56.1 °F 45.3 °F 29.83 in South 1.5 mph 5 mph 67% 0.00 in 0 W/m2
21:44 56.1 °F 45.3 °F 29.83 in South 1.5 mph 5 mph 67.2% 0.00 in 0 W/m2
21:49 55.9 °F 45.5 °F 29.83 in South 0.4 mph 5 mph 67.9% 0.00 in 0 W/m2
21:54 55.7 °F 45.5 °F 29.82 in South 0.6 mph 5 mph 68.5% 0.00 in 0 W/m2
21:59 55.4 °F 45.4 °F 29.82 in Calm   5 mph 69% 0.00 in 0 W/m2
22:04 55.2 °F 45.5 °F 29.82 in South 0.7 mph 5 mph 69.8% 0.00 in 0 W/m2
22:09 55 °F 45.5 °F 29.82 in South 1.6 mph 5 mph 70.1% 0.00 in 0 W/m2
22:14 54.9 °F 45.6 °F 29.81 in South 2.1 mph 5 mph 71% 0.00 in 0 W/m2
22:19 54.7 °F 45.7 °F 29.81 in South 1.4 mph 5 mph 71.4% 0.00 in 0 W/m2
22:24 54.7 °F 45.9 °F 29.81 in South 1.7 mph 5 mph 72% 0.00 in 0 W/m2
22:29 54.6 °F 45.8 °F 29.81 in South 1.2 mph 5 mph 72% 0.00 in 0 W/m2
22:34 54.6 °F 45.8 °F 29.81 in South 0.7 mph 5 mph 72% 0.00 in 0 W/m2
22:39 54.5 °F 45.9 °F 29.82 in South 0.6 mph 4 mph 72.4% 0.00 in 0 W/m2
22:44 54.4 °F 46 °F 29.82 in South 1.1 mph 4 mph 73% 0.00 in 0 W/m2
22:49 54.4 °F 45.9 °F 29.81 in South 1.5 mph 4 mph 73% 0.00 in 0 W/m2
22:54 54.4 °F 46.1 °F 29.82 in South 1.3 mph 4 mph 73.5% 0.00 in 0 W/m2
22:59 54.4 °F 46.3 °F 29.82 in South 0.7 mph 4 mph 74% 0.00 in 0 W/m2
23:00 54.4 °F 46.3 °F 29.81 in South 2 mph 4 mph 74% 0.00 in 0 W/m2
23:09 54.2 °F 46.1 °F 29.81 in South 0.6 mph 3 mph 74% 0.00 in 0 W/m2
23:14 54.1 °F 46.4 °F 29.81 in South 0.2 mph 3 mph 74.9% 0.00 in 0 W/m2
23:19 54.1 °F 46.3 °F 29.81 in South 1.8 mph 5 mph 75% 0.00 in 0 W/m2
23:24 54 °F 46.3 °F 29.80 in South 2.3 mph 6 mph 75% 0.00 in 0 W/m2
23:29 54 °F 46.6 °F 29.80 in South 0.7 mph 6 mph 76% 0.00 in 0 W/m2
23:34 54 °F 46.6 °F 29.81 in South 0.2 mph 6 mph 76% 0.00 in 0 W/m2
23:39 53.9 °F 46.5 °F 29.81 in Calm   2 mph 76% 0.00 in 0 W/m2
23:44 53.6 °F 46.4 °F 29.80 in Calm   2 mph 76.5% 0.00 in 0 W/m2
23:49 53.4 °F 46.4 °F 29.80 in Calm   2 mph 77.3% 0.00 in 0 W/m2
23:54 53.2 °F 46.5 °F 29.80 in South 0.5 mph 3 mph 78% 0.00 in 0 W/m2
23:59 53.1 °F 46.4 °F 29.80 in Calm   3 mph 78% 0.00 in 0 W/m2
Hartford County Weather
Compliments of Weather Underground - 4 mb